Time;durP1;ratioP1;P1;durP2;ratioP2;P2;SDS_P1;SDS_P2;PMS_P1;PMS_P2;Temp;Humidity;BMP_temperature;BMP_pressure;BME280_temperature;BME280_humidity;BME280_pressure;Samples;Min_cycle;Max_cycle;Signal;HPM_P1;HPM_P2
2023/04/15 00:00:09;;;;;;;7.67;3.43;;;;;;;5.59;95.09;152797.50;5088618;28;20445;-82
2023/04/15 00:02:43;;;;;;;4.30;3.40;;;;;;;5.63;96.34;152807.84;5055229;28;20532;-82
2023/04/15 00:05:10;;;;;;;4.33;3.33;;;;;;;5.58;96.01;152794.97;5074624;28;20454;-83
2023/04/15 00:07:37;;;;;;;5.20;3.30;;;;;;;5.50;95.76;152775.63;5078716;28;20433;-82
2023/04/15 00:10:04;;;;;;;5.70;4.40;;;;;;;5.52;95.58;152779.47;5078123;28;20995;-82
2023/04/15 00:12:31;;;;;;;6.77;4.17;;;;;;;5.55;97.03;152787.22;5074245;28;21001;-82
2023/04/15 00:14:57;;;;;;;6.40;4.10;;;;;;;5.56;96.62;152789.75;5089203;28;20442;-82
2023/04/15 00:17:24;;;;;;;8.17;4.83;;;;;;;5.62;95.75;152805.25;5084428;28;20429;-81
2023/04/15 00:19:53;;;;;;;7.13;4.43;;;;;;;5.72;95.65;152831.03;5058996;28;20872;-82
2023/04/15 00:22:20;;;;;;;5.03;4.33;;;;;;;5.74;95.88;152836.22;5077216;28;20480;-82
2023/04/15 00:24:47;;;;;;;5.00;3.63;;;;;;;5.79;94.48;152847.81;5061972;28;20483;-81
2023/04/15 00:27:14;;;;;;;7.07;4.17;;;;;;;5.91;93.51;152880.09;5096654;28;20464;-81
2023/04/15 00:29:41;;;;;;;6.63;5.10;;;;;;;6.03;93.14;152911.09;5069300;28;20469;-82
2023/04/15 00:32:08;;;;;;;5.30;4.40;;;;;;;6.05;93.10;152916.25;5071433;28;20477;-81
2023/04/15 00:34:34;;;;;;;6.47;4.97;;;;;;;5.99;93.46;152900.75;5074622;28;20971;-82
2023/04/15 00:37:02;;;;;;;5.77;4.00;;;;;;;5.95;92.98;152890.44;5075894;28;20453;-82
2023/04/15 00:39:29;;;;;;;7.30;4.80;;;;;;;5.87;93.37;152869.81;5074559;28;20433;-81
2023/04/15 00:41:56;;;;;;;6.50;4.80;;;;;;;5.76;92.88;152841.38;5076165;28;20441;-81
2023/04/15 00:44:23;;;;;;;5.93;5.10;;;;;;;5.67;93.95;152818.16;5075990;28;21227;-81
2023/04/15 00:46:51;;;;;;;12.80;8.83;;;;;;;5.59;94.22;152797.50;5054730;28;20864;-81
2023/04/15 00:49:18;;;;;;;13.30;9.20;;;;;;;5.48;94.19;152769.19;5091770;28;20429;-77
2023/04/15 00:51:45;;;;;;;11.10;6.40;;;;;;;5.42;93.52;152753.69;5075606;28;20476;-77
2023/04/15 00:54:13;;;;;;;9.37;5.10;;;;;;;5.47;94.47;152767.88;5073324;28;20529;-77
2023/04/15 00:56:40;;;;;;;6.43;5.00;;;;;;;5.46;95.15;152764.00;5076870;28;20449;-77
2023/04/15 00:59:08;;;;;;;5.43;4.27;;;;;;;5.33;94.23;152730.47;5070802;28;20457;-77
2023/04/15 01:01:35;;;;;;;6.43;4.77;;;;;;;5.27;95.50;152716.28;5055458;28;20528;-78
2023/04/15 01:04:03;;;;;;;9.23;5.30;;;;;;;5.17;94.77;152689.22;5071485;28;20434;-77
2023/04/15 01:06:31;;;;;;;5.67;4.60;;;;;;;5.13;96.17;152680.22;5059978;28;20445;-77
2023/04/15 01:08:58;;;;;;;11.23;4.70;;;;;;;5.06;96.07;152660.84;5056155;28;20476;-77
2023/04/15 01:11:26;;;;;;;6.17;5.10;;;;;;;5.06;96.56;152660.84;5053578;28;20470;-77
2023/04/15 01:13:55;;;;;;;6.83;5.10;;;;;;;5.05;97.16;152658.31;5088207;28;20458;-77
2023/04/15 01:16:22;;;;;;;8.73;5.40;;;;;;;5.06;97.03;152662.16;5082224;28;20469;-77
2023/04/15 01:18:49;;;;;;;7.80;5.17;;;;;;;5.05;97.21;152659.59;5088900;28;20796;-77
2023/04/15 01:21:16;;;;;;;7.33;5.67;;;;;;;5.10;97.27;152671.19;5074185;28;20989;-77
2023/04/15 01:23:43;;;;;;;7.30;6.20;;;;;;;5.11;97.67;152673.78;5074258;28;20442;-77
2023/04/15 01:26:12;;;;;;;9.13;5.60;;;;;;;5.11;96.65;152675.03;5074083;28;20499;-77
2023/04/15 01:28:39;;;;;;;6.60;5.30;;;;;;;5.09;96.44;152669.88;5068351;28;20499;-78
2023/04/15 01:31:07;;;;;;;6.17;5.07;;;;;;;5.06;96.25;152662.16;5074897;28;20445;-77
2023/04/15 01:33:37;;;;;;;6.83;5.13;;;;;;;5.05;96.84;152659.59;5047468;28;20454;-79
2023/04/15 01:36:04;;;;;;;5.47;4.87;;;;;;;5.01;97.21;152649.25;5077483;28;20538;-78
2023/04/15 01:38:31;;;;;;;5.67;5.07;;;;;;;4.99;96.88;152642.81;5071517;28;20446;-79
2023/04/15 01:40:58;;;;;;;7.30;5.97;;;;;;;4.92;96.21;152627.34;5069126;28;20467;-79
2023/04/15 01:43:27;;;;;;;6.00;4.97;;;;;;;4.90;95.50;152622.19;5058870;28;20808;-79
2023/04/15 01:45:53;;;;;;;6.60;5.13;;;;;;;4.87;95.58;152614.47;5098765;28;21206;-78
2023/04/15 01:48:21;;;;;;;5.57;4.83;;;;;;;4.87;96.26;152613.22;5050844;28;20452;-78
2023/04/15 01:50:47;;;;;;;10.57;6.57;;;;;;;4.83;95.80;152604.16;5070568;28;20552;-78
2023/04/15 01:53:14;;;;;;;6.43;5.03;;;;;;;4.83;96.24;152604.16;5076801;28;20974;-78
2023/04/15 01:55:41;;;;;;;5.60;4.97;;;;;;;4.81;95.72;152597.72;5075520;28;20453;-78
2023/04/15 01:58:08;;;;;;;7.13;5.90;;;;;;;4.76;96.47;152586.16;5067418;28;21505;-78
2023/04/15 02:00:36;;;;;;;7.63;5.73;;;;;;;4.74;96.17;152580.97;5054289;28;20873;-78
2023/04/15 02:03:02;;;;;;;6.37;4.77;;;;;;;4.70;96.17;152569.38;5075838;28;21073;-78
2023/04/15 02:05:29;;;;;;;6.67;5.27;;;;;;;4.69;96.75;152566.78;5057344;28;20456;-78
2023/04/15 02:07:56;;;;;;;5.90;5.20;;;;;;;4.66;96.51;152560.34;5064848;28;20445;-78
2023/04/15 02:10:23;;;;;;;5.87;4.53;;;;;;;4.65;97.49;152556.50;5093558;28;20457;-79
2023/04/15 02:12:49;;;;;;;6.30;4.57;;;;;;;4.67;97.84;152561.63;5055378;28;20478;-78
2023/04/15 02:15:16;;;;;;;5.17;4.63;;;;;;;4.63;97.78;152552.59;5049235;28;20482;-78
2023/04/15 02:17:49;;;;;;;8.60;4.97;;;;;;;4.62;97.89;152548.75;5071168;28;20442;-78
2023/04/15 02:20:16;;;;;;;6.30;4.83;;;;;;;4.59;97.50;152541.03;5069052;28;20437;-78
2023/04/15 02:22:43;;;;;;;6.10;4.83;;;;;;;4.58;97.75;152539.72;5076094;28;20429;-78
2023/04/15 02:25:10;;;;;;;5.63;4.80;;;;;;;4.55;97.74;152530.72;5074146;28;20492;-78
2023/04/15 02:27:37;;;;;;;4.93;4.23;;;;;;;4.57;97.26;152535.88;5072419;28;20475;-78
2023/04/15 02:30:04;;;;;;;6.53;4.70;;;;;;;4.56;97.44;152533.28;5075645;28;20437;-79
2023/04/15 02:32:34;;;;;;;6.00;5.40;;;;;;;4.55;97.96;152532.03;5055092;28;20458;-78
2023/04/15 02:35:04;;;;;;;4.60;4.20;;;;;;;4.56;97.93;152534.59;5091483;28;20774;-78
2023/04/15 02:37:35;;;;;;;5.60;4.73;;;;;;;4.55;97.95;152532.03;5050674;28;20454;-79
2023/04/15 02:40:02;;;;;;;7.90;5.27;;;;;;;4.52;97.98;152524.28;5053639;28;20438;-78
2023/04/15 02:42:30;;;;;;;7.17;4.33;;;;;;;4.46;97.20;152508.81;5073408;28;20494;-78
2023/04/15 02:44:59;;;;;;;7.10;4.70;;;;;;;4.42;97.84;152498.50;5051535;28;20539;-78
2023/04/15 02:47:30;;;;;;;6.13;4.43;;;;;;;4.39;98.38;152490.81;5056191;28;20565;-78
2023/04/15 02:49:59;;;;;;;5.87;4.60;;;;;;;4.36;97.94;152483.06;5057272;28;20445;-78
2023/04/15 02:52:27;;;;;;;5.50;4.37;;;;;;;4.36;97.77;152481.78;5071602;28;20469;-78
2023/04/15 02:54:56;;;;;;;6.60;4.50;;;;;;;4.35;98.31;152480.47;5066601;28;20444;-77
2023/04/15 02:57:23;;;;;;;6.17;4.00;;;;;;;4.35;98.32;152479.19;5066976;28;20441;-78
2023/04/15 02:59:50;;;;;;;6.77;5.10;;;;;;;4.36;98.37;152483.06;5067835;28;20441;-78
2023/04/15 03:02:16;;;;;;;6.33;4.33;;;;;;;4.38;98.46;152488.22;5056402;28;20441;-79
2023/04/15 03:04:43;;;;;;;5.90;4.47;;;;;;;4.46;98.69;152507.53;5065770;28;20817;-79
2023/04/15 03:07:10;;;;;;;4.00;3.60;;;;;;;4.45;97.95;152506.22;5062498;28;20488;-79
2023/04/15 03:09:39;;;;;;;5.27;4.20;;;;;;;4.45;98.03;152506.22;5070639;28;20533;-79
2023/04/15 03:12:06;;;;;;;4.50;4.10;;;;;;;4.48;97.63;152512.66;5073791;28;20900;-79
2023/04/15 03:14:34;;;;;;;4.60;3.83;;;;;;;4.49;96.90;152515.25;5056747;28;20449;-79
2023/04/15 03:17:01;;;;;;;4.93;3.87;;;;;;;4.47;96.32;152510.13;5052724;28;20468;-78
2023/04/15 03:19:28;;;;;;;5.63;3.97;;;;;;;4.45;96.39;152506.22;5069298;28;20444;-79
2023/04/15 03:21:55;;;;;;;4.97;3.40;;;;;;;4.47;96.62;152511.41;5068613;28;20828;-77
2023/04/15 03:24:21;;;;;;;4.47;4.07;;;;;;;4.43;95.81;152499.78;5073414;28;20493;-78
2023/04/15 03:26:50;;;;;;;5.40;4.17;;;;;;;4.43;96.35;152501.09;5072660;28;20469;-78
2023/04/15 03:29:17;;;;;;;4.20;3.80;;;;;;;4.37;95.40;152484.38;5057891;28;20437;-79
2023/04/15 03:31:44;;;;;;;4.90;3.63;;;;;;;4.34;96.40;152477.94;5055198;28;20457;-78
2023/04/15 03:34:11;;;;;;;4.80;3.77;;;;;;;4.29;96.38;152465.00;5073758;28;20463;-78
2023/04/15 03:36:38;;;;;;;5.00;3.20;;;;;;;4.26;96.48;152457.31;5072863;28;20445;-78
2023/04/15 03:39:04;;;;;;;4.43;3.30;;;;;;;4.25;96.77;152454.72;5091395;28;20525;-78
2023/04/15 03:41:31;;;;;;;5.53;3.80;;;;;;;4.29;96.78;152466.31;5074500;28;20543;-79
2023/04/15 03:43:59;;;;;;;4.40;3.37;;;;;;;4.33;96.87;152475.34;5072173;28;20488;-78
2023/04/15 03:46:26;;;;;;;3.90;3.20;;;;;;;4.39;96.38;152490.81;5070119;28;20450;-79
2023/04/15 03:48:53;;;;;;;5.80;3.27;;;;;;;4.38;97.09;152488.22;5070644;28;20449;-78
2023/04/15 03:51:20;;;;;;;5.50;3.17;;;;;;;4.39;96.28;152490.81;5074275;28;20537;-78
2023/04/15 03:53:46;;;;;;;3.73;3.07;;;;;;;4.38;96.49;152488.22;5073765;28;20496;-78
2023/04/15 03:56:13;;;;;;;5.13;3.63;;;;;;;4.36;96.37;152483.06;5073579;28;20481;-78
2023/04/15 03:58:40;;;;;;;4.40;3.40;;;;;;;4.34;95.97;152476.63;5069850;28;20897;-78
2023/04/15 04:01:08;;;;;;;6.27;4.10;;;;;;;4.34;96.54;152477.94;5087606;28;21018;-78
2023/04/15 04:03:35;;;;;;;6.63;3.73;;;;;;;4.29;96.63;152466.31;5090629;28;20936;-78
2023/04/15 04:06:02;;;;;;;5.13;4.10;;;;;;;4.27;96.29;152459.88;5072575;28;20466;-78
2023/04/15 04:08:29;;;;;;;5.20;4.30;;;;;;;4.17;97.15;152434.13;5065949;28;20492;-78
2023/04/15 04:10:56;;;;;;;4.50;3.90;;;;;;;4.12;97.26;152421.25;5081988;28;20441;-78
2023/04/15 04:13:22;;;;;;;7.73;4.23;;;;;;;4.02;97.53;152395.50;5059162;28;20572;-78
2023/04/15 04:15:49;;;;;;;5.17;4.30;;;;;;;3.94;97.95;152376.19;5065490;28;20528;-78
2023/04/15 04:18:17;;;;;;;4.87;3.87;;;;;;;3.87;98.12;152358.13;5060288;28;20520;-78
2023/04/15 04:20:44;;;;;;;4.80;3.90;;;;;;;3.84;98.95;152350.41;5067172;28;20799;-78
2023/04/15 04:23:11;;;;;;;6.00;4.63;;;;;;;3.80;98.64;152338.81;5067978;28;20465;-78
2023/04/15 04:25:37;;;;;;;7.93;4.17;;;;;;;3.78;98.59;152334.97;5068991;28;20458;-78
2023/04/15 04:28:04;;;;;;;8.10;4.23;;;;;;;3.79;99.03;152336.22;5067068;28;20450;-78
2023/04/15 04:30:31;;;;;;;4.70;4.20;;;;;;;3.79;99.46;152336.22;5049221;28;20450;-78
2023/04/15 04:32:58;;;;;;;5.63;3.93;;;;;;;3.77;99.52;152331.09;5038016;28;20566;-78
2023/04/15 04:35:26;;;;;;;7.20;4.17;;;;;;;3.76;99.26;152328.53;5053514;28;20450;-78
2023/04/15 04:37:53;;;;;;;4.73;4.17;;;;;;;3.76;99.55;152329.78;5070704;28;20446;-78
2023/04/15 04:40:20;;;;;;;4.83;3.80;;;;;;;3.81;99.71;152341.41;5066875;28;20443;-78
2023/04/15 04:42:47;;;;;;;4.70;3.27;;;;;;;3.81;99.84;152341.41;5071936;28;20442;-79
2023/04/15 04:45:14;;;;;;;3.73;3.20;;;;;;;3.78;99.13;152333.69;5061307;28;20890;-78
2023/04/15 04:47:40;;;;;;;3.90;3.40;;;;;;;3.77;98.61;152331.09;5067672;28;20445;-78
2023/04/15 04:50:09;;;;;;;5.97;3.90;;;;;;;3.76;99.11;152328.53;5069409;28;20446;-78
2023/04/15 04:52:37;;;;;;;5.43;4.10;;;;;;;3.75;99.09;152325.94;5049986;28;20502;-78
2023/04/15 04:55:04;;;;;;;8.20;4.00;;;;;;;3.71;99.11;152315.69;5065452;28;20878;-78
2023/04/15 04:57:31;;;;;;;6.27;4.20;;;;;;;3.71;100.00;152315.69;5054476;28;20457;-78
2023/04/15 04:59:58;;;;;;;7.97;4.30;;;;;;;3.72;100.00;152318.22;5067182;28;20434;-78
2023/04/15 05:02:25;;;;;;;4.90;4.37;;;;;;;3.70;100.00;152314.38;5072418;28;20443;-78
2023/04/15 05:04:53;;;;;;;5.00;4.10;;;;;;;3.67;100.00;152307.94;5074506;28;20996;-79
2023/04/15 05:07:20;;;;;;;6.00;4.43;;;;;;;3.79;100.00;152336.22;5068401;28;20492;-78
2023/04/15 05:09:48;;;;;;;6.70;4.80;;;;;;;3.74;100.00;152323.34;5069093;28;20446;-78
2023/04/15 05:12:15;;;;;;;5.00;4.10;;;;;;;3.66;100.00;152304.06;5070587;28;20878;-78
2023/04/15 05:14:42;;;;;;;5.30;4.77;;;;;;;3.59;100.00;152286.03;5070559;28;20452;-78
2023/04/15 05:17:08;;;;;;;7.43;5.43;;;;;;;3.55;100.00;152277.03;5088712;28;20473;-78
2023/04/15 05:19:35;;;;;;;6.00;5.33;;;;;;;3.55;100.00;152277.03;5088475;28;20508;-78
2023/04/15 05:22:02;;;;;;;7.23;4.77;;;;;;;3.57;100.00;152282.16;5090815;28;20457;-78
2023/04/15 05:24:28;;;;;;;8.13;5.93;;;;;;;3.63;100.00;152296.31;5063736;28;20488;-77
2023/04/15 05:27:00;;;;;;;7.30;5.77;;;;;;;3.62;100.00;152293.78;5090055;28;20482;-77
2023/04/15 05:29:27;;;;;;;6.57;5.47;;;;;;;3.64;100.00;152300.22;5075276;28;20523;-77
2023/04/15 05:31:54;;;;;;;8.93;6.97;;;;;;;3.66;100.00;152305.34;5073290;28;20489;-76
2023/04/15 05:34:21;;;;;;;9.13;6.57;;;;;;;3.76;100.00;152328.53;5066240;28;20496;-79
2023/04/15 05:36:48;;;;;;;9.73;7.10;;;;;;;3.86;100.00;152354.28;5069665;28;21114;-79
2023/04/15 05:39:15;;;;;;;9.27;7.40;;;;;;;3.98;100.00;152385.16;5071694;28;20474;-79
2023/04/15 05:41:42;;;;;;;9.80;7.93;;;;;;;4.15;100.00;152428.97;5074533;28;20589;-78
2023/04/15 05:44:10;;;;;;;11.13;7.93;;;;;;;4.40;100.00;152493.34;5047762;28;20442;-79
2023/04/15 05:46:36;;;;;;;10.10;8.60;;;;;;;4.69;100.00;152568.06;5087916;28;20863;-78
2023/04/15 05:49:03;;;;;;;10.53;8.63;;;;;;;5.00;100.00;152645.41;5089911;28;20460;-76
2023/04/15 05:51:30;;;;;;;9.93;7.50;;;;;;;5.22;98.63;152702.09;5089729;28;20454;-78
2023/04/15 05:53:56;;;;;;;10.87;8.00;;;;;;;5.45;98.38;152761.44;5071329;28;20464;-79
2023/04/15 05:56:25;;;;;;;11.83;8.90;;;;;;;5.66;97.47;152815.59;5071493;28;20458;-79
2023/04/15 05:58:52;;;;;;;14.73;8.60;;;;;;;5.96;96.56;152893.00;5066017;28;20450;-77
2023/04/15 06:01:21;;;;;;;10.90;8.00;;;;;;;6.22;95.15;152957.53;5088106;28;20544;-79
2023/04/15 06:03:47;;;;;;;12.70;9.57;;;;;;;6.40;94.25;153003.97;5088837;28;20445;-77
2023/04/15 06:06:14;;;;;;;11.63;9.20;;;;;;;6.53;92.98;153037.50;5070029;28;20544;-77
2023/04/15 06:08:41;;;;;;;11.90;9.07;;;;;;;6.61;92.02;153058.16;5088590;28;20445;-76
2023/04/15 06:11:07;;;;;;;13.07;9.00;;;;;;;6.73;91.59;153089.13;5063316;28;20466;-77
2023/04/15 06:13:34;;;;;;;12.83;9.50;;;;;;;6.91;91.37;153134.34;5089661;28;20563;-77
2023/04/15 06:16:01;;;;;;;14.53;8.80;;;;;;;7.08;89.59;153179.50;5076736;28;20474;-77
2023/04/15 06:18:29;;;;;;;10.10;8.80;;;;;;;7.37;90.06;153253.09;5067940;28;20454;-77
2023/04/15 06:20:56;;;;;;;11.67;7.57;;;;;;;7.62;89.13;153316.41;5065410;28;20481;-78
2023/04/15 06:23:23;;;;;;;9.37;7.97;;;;;;;7.80;88.02;153362.88;5069357;28;20440;-77
2023/04/15 06:25:49;;;;;;;9.53;7.00;;;;;;;8.07;86.88;153432.66;5069709;28;20451;-77
2023/04/15 06:28:16;;;;;;;9.73;7.30;;;;;;;8.21;85.56;153467.50;5050056;28;20438;-77
2023/04/15 06:30:43;;;;;;;8.13;6.33;;;;;;;8.32;80.71;153497.31;5050264;28;20458;-77
2023/04/15 06:33:09;;;;;;;11.63;8.27;;;;;;;8.44;83.39;153528.34;5061754;28;20462;-77
2023/04/15 06:35:38;;;;;;;8.83;6.70;;;;;;;8.36;85.08;153507.69;5066196;28;20472;-77
2023/04/15 06:38:05;;;;;;;11.73;6.70;;;;;;;8.39;84.49;153514.13;5059034;28;20525;-77
2023/04/15 06:40:31;;;;;;;9.43;7.47;;;;;;;8.41;86.12;153520.59;5065532;28;20504;-77
2023/04/15 06:42:58;;;;;;;7.90;6.33;;;;;;;8.63;80.71;153574.88;5052031;28;20510;-77
2023/04/15 06:45:25;;;;;;;9.97;6.70;;;;;;;8.78;80.77;153613.66;5069955;28;20458;-78
2023/04/15 06:47:52;;;;;;;7.63;6.70;;;;;;;8.88;76.78;153639.50;5068071;28;20496;-78
2023/04/15 06:50:18;;;;;;;9.30;6.90;;;;;;;9.04;76.97;153680.88;5064863;28;20466;-78
2023/04/15 06:52:46;;;;;;;9.83;7.00;;;;;;;9.04;75.10;153682.19;5066985;28;20466;-77
2023/04/15 06:55:13;;;;;;;10.70;7.63;;;;;;;9.08;76.36;153691.25;5084272;28;20462;-77
2023/04/15 06:57:40;;;;;;;7.90;6.90;;;;;;;9.10;76.28;153696.41;5067801;28;20442;-78
2023/04/15 07:00:10;;;;;;;9.33;8.40;;;;;;;9.20;76.08;153722.28;5066943;28;20455;-78
2023/04/15 07:02:36;;;;;;;9.27;6.73;;;;;;;9.38;77.00;153767.53;5061046;28;20439;-78
2023/04/15 07:05:04;;;;;;;10.30;8.30;;;;;;;9.73;75.50;153859.41;5049905;28;20537;-78
2023/04/15 07:07:30;;;;;;;13.67;10.20;;;;;;;10.04;73.63;153937.03;5061491;28;20460;-77
2023/04/15 07:10:00;;;;;;;17.73;14.80;;;;;;;10.35;73.31;154018.63;5065955;28;20454;-78
2023/04/15 07:12:27;;;;;;;12.80;10.30;;;;;;;10.54;71.02;154066.53;5066229;28;20442;-78
2023/04/15 07:14:54;;;;;;;13.70;11.87;;;;;;;10.61;72.10;154083.38;5065029;28;20477;-79
2023/04/15 07:17:21;;;;;;;10.20;7.50;;;;;;;10.83;71.05;154141.63;5086048;28;20506;-78
2023/04/15 07:19:49;;;;;;;12.13;10.03;;;;;;;11.04;69.24;154194.72;5069100;28;20489;-78
2023/04/15 07:22:16;;;;;;;8.80;7.90;;;;;;;11.24;68.33;154245.25;5084694;28;20805;-79
2023/04/15 07:24:43;;;;;;;10.03;8.67;;;;;;;11.44;68.52;154298.38;5053360;28;21001;-78
2023/04/15 07:27:11;;;;;;;8.67;6.40;;;;;;;11.63;70.51;154347.63;5087685;28;20549;-78
2023/04/15 07:29:37;;;;;;;7.80;6.70;;;;;;;11.59;73.86;154337.28;5062822;28;20504;-78
2023/04/15 07:32:05;;;;;;;9.87;7.33;;;;;;;11.42;74.50;154291.91;5071189;28;20461;-78
2023/04/15 07:34:32;;;;;;;8.03;6.67;;;;;;;11.38;72.12;154282.84;5070081;28;20476;-78
2023/04/15 07:36:58;;;;;;;8.53;7.73;;;;;;;11.25;70.50;154249.13;5068564;28;20541;-78
2023/04/15 07:39:25;;;;;;;8.60;7.23;;;;;;;11.09;68.67;154206.41;5069853;28;20833;-79
2023/04/15 07:41:51;;;;;;;8.87;7.40;;;;;;;10.98;69.02;154180.53;5089068;28;20457;-78
2023/04/15 07:44:20;;;;;;;9.40;7.17;;;;;;;10.88;69.17;154153.31;5070738;28;20512;-78
2023/04/15 07:46:46;;;;;;;7.97;7.17;;;;;;;10.60;70.16;154080.78;5087578;28;21204;-78
2023/04/15 07:49:13;;;;;;;11.50;9.77;;;;;;;10.47;70.98;154048.41;5087207;28;20446;-78
2023/04/15 07:51:40;;;;;;;10.30;8.07;;;;;;;10.51;72.32;154057.50;5070540;28;20452;-78
2023/04/15 07:54:06;;;;;;;9.60;7.80;;;;;;;10.55;72.66;154067.84;5068739;28;20684;-78
2023/04/15 07:56:33;;;;;;;8.33;7.00;;;;;;;10.50;72.55;154056.19;5089212;28;20552;-78
2023/04/15 07:59:00;;;;;;;7.40;6.37;;;;;;;10.59;72.85;154078.22;5069351;28;20978;-78
2023/04/15 08:01:29;;;;;;;10.40;6.40;;;;;;;10.55;71.59;154069.13;5060858;28;20461;-78
2023/04/15 08:03:55;;;;;;;6.60;5.70;;;;;;;10.34;71.88;154014.75;5067409;28;20450;-78
2023/04/15 08:06:22;;;;;;;7.17;6.47;;;;;;;10.38;72.99;154026.41;5068018;28;20454;-78
2023/04/15 08:08:49;;;;;;;18.90;17.00;;;;;;;10.45;72.89;154041.94;5081991;28;21074;-78
2023/04/15 08:11:16;;;;;;;8.03;6.63;;;;;;;10.39;73.03;154029.00;5087716;28;20480;-78
2023/04/15 08:13:42;;;;;;;6.90;6.20;;;;;;;10.41;73.60;154032.88;5089254;28;20568;-78
2023/04/15 08:16:18;;;;;;;7.43;6.63;;;;;;;10.60;73.51;154082.06;5087902;28;20865;-78
2023/04/15 08:18:46;;;;;;;8.37;7.50;;;;;;;10.69;72.47;154105.41;5085485;28;20477;-78
2023/04/15 08:21:13;;;;;;;8.10;6.80;;;;;;;10.51;72.65;154057.50;5080568;28;20560;-79
2023/04/15 08:23:41;;;;;;;10.40;7.33;;;;;;;10.46;72.75;154045.81;5090172;28;20446;-78
2023/04/15 08:26:08;;;;;;;6.40;5.53;;;;;;;10.55;73.22;154069.13;5091797;28;20467;-78
2023/04/15 08:28:35;;;;;;;8.67;6.80;;;;;;;10.70;72.53;154107.97;5072210;28;20506;-79
2023/04/15 08:31:02;;;;;;;8.23;6.30;;;;;;;10.92;73.10;154164.97;5088444;28;20831;-79
2023/04/15 08:33:29;;;;;;;13.53;6.57;;;;;;;11.23;70.61;154243.97;5093104;28;20538;-89
2023/04/15 08:35:57;;;;;;;6.87;4.90;;;;;;;11.43;68.93;154294.50;5060337;28;20816;-83
2023/04/15 08:38:24;;;;;;;6.50;3.67;;;;;;;11.53;66.98;154320.41;5074255;28;20822;-84
2023/04/15 08:40:51;;;;;;;7.20;5.63;;;;;;;11.77;68.19;154381.38;5076768;28;20459;-82
2023/04/15 08:43:22;;;;;;;8.77;5.70;;;;;;;11.89;68.12;154413.75;5092722;28;20464;-82
2023/04/15 08:45:51;;;;;;;5.63;4.70;;;;;;;12.04;66.42;154451.38;5075930;28;20461;-83
2023/04/15 08:48:17;;;;;;;4.50;3.90;;;;;;;12.11;64.44;154470.81;5091993;28;20457;-83
2023/04/15 08:50:45;;;;;;;5.50;3.70;;;;;;;12.23;63.36;154499.34;5072201;28;20506;-83
2023/04/15 08:53:13;;;;;;;4.83;3.10;;;;;;;12.21;64.04;154496.72;5076444;28;20492;-84
2023/04/15 08:55:43;;;;;;;3.53;2.80;;;;;;;12.23;58.50;154501.91;5074607;28;20998;-84
2023/04/15 08:58:11;;;;;;;4.20;3.23;;;;;;;12.21;60.07;154496.72;5093883;28;20481;-82
2023/04/15 09:00:38;;;;;;;3.47;3.17;;;;;;;12.50;60.47;154569.31;5092434;28;20510;-83
2023/04/15 09:03:05;;;;;;;5.10;3.93;;;;;;;12.47;59.37;154561.59;5092754;28;20437;-83
2023/04/15 09:05:32;;;;;;;5.97;3.63;;;;;;;12.49;58.75;154568.06;5076843;28;20455;-83
2023/04/15 09:07:59;;;;;;;4.80;3.20;;;;;;;12.43;59.79;154552.50;5077176;28;20448;-82
2023/04/15 09:10:27;;;;;;;4.10;2.80;;;;;;;12.52;57.83;154574.53;5094257;28;20463;-82
2023/04/15 09:12:54;;;;;;;4.67;2.83;;;;;;;12.58;58.03;154591.38;5088095;28;20442;-82
2023/04/15 09:15:22;;;;;;;3.77;3.37;;;;;;;12.65;60.30;154609.56;5089148;28;20593;-80
2023/04/15 09:17:49;;;;;;;4.80;3.27;;;;;;;12.81;60.27;154649.75;5068307;28;20960;-83
2023/04/15 09:20:17;;;;;;;7.00;3.87;;;;;;;12.95;58.70;154686.06;5093973;28;20463;-82
2023/04/15 09:22:46;;;;;;;4.60;2.80;;;;;;;12.95;53.80;154686.06;5067569;28;20451;-82
2023/04/15 09:25:28;;;;;;;4.20;2.80;;;;;;;12.90;54.12;154673.09;5063031;28;20434;-83
2023/04/15 09:27:56;;;;;;;4.03;2.73;;;;;;;12.76;55.69;154636.81;5074772;28;20790;-82
2023/04/15 09:30:23;;;;;;;3.20;2.80;;;;;;;12.79;55.42;154645.84;5057426;28;20965;-82
2023/04/15 09:32:51;;;;;;;4.37;3.33;;;;;;;12.91;63.58;154675.69;5073858;28;20519;-83
2023/04/15 09:35:18;;;;;;;4.20;3.10;;;;;;;12.92;58.09;154677.00;5080859;28;21081;-83
2023/04/15 09:37:44;;;;;;;5.73;4.77;;;;;;;12.82;57.00;154653.63;5076674;28;20458;-83
2023/04/15 09:40:12;;;;;;;4.23;3.73;;;;;;;12.72;56.65;154626.41;5094701;28;20538;-83
2023/04/15 09:45:33;;;;;;;4.97;3.07;;;;;;;12.85;60.03;154660.13;5089740;27;20578;-84
2023/04/15 09:48:00;;;;;;;4.70;3.60;;;;;;;12.99;58.47;154696.47;5084008;28;20533;-84
2023/04/15 09:50:28;;;;;;;4.07;3.50;;;;;;;12.83;56.56;154654.94;5066614;28;20447;-84
2023/04/15 09:52:55;;;;;;;4.20;3.03;;;;;;;12.79;58.11;154644.53;5114181;28;20475;-83
2023/04/15 09:55:22;;;;;;;5.80;3.90;;;;;;;12.79;57.95;154644.53;5083445;28;20797;-83
2023/04/15 09:57:48;;;;;;;4.10;3.70;;;;;;;12.80;56.86;154647.16;5087993;28;20457;-83
2023/04/15 10:00:15;;;;;;;5.27;3.53;;;;;;;12.67;56.64;154613.44;5117930;28;21050;-83
2023/04/15 10:02:44;;;;;;;5.17;3.83;;;;;;;12.67;58.35;154613.44;5080570;28;20487;-84
2023/04/15 10:05:11;;;;;;;5.33;4.10;;;;;;;12.75;58.38;154635.50;5091003;28;20537;-83
2023/04/15 10:07:39;;;;;;;6.63;4.00;;;;;;;12.90;58.76;154673.09;5083741;28;20461;-84
2023/04/15 10:10:08;;;;;;;4.77;3.90;;;;;;;12.79;57.35;154644.53;5077924;28;20453;-84
2023/04/15 10:12:36;;;;;;;4.37;3.77;;;;;;;12.54;56.66;154581.03;5112996;28;20454;-83
2023/04/15 10:15:05;;;;;;;4.13;3.40;;;;;;;12.45;59.57;154556.34;5115283;27;21034;-84
2023/04/15 10:17:34;;;;;;;4.70;3.50;;;;;;;12.45;56.55;154556.34;5079181;28;20444;-83
2023/04/15 10:20:03;;;;;;;4.03;3.43;;;;;;;12.29;56.08;154514.84;5112845;28;20455;-81
2023/04/15 10:22:30;;;;;;;4.10;3.40;;;;;;;12.23;56.46;154501.91;5109320;28;20456;-84
2023/04/15 10:24:57;;;;;;;5.27;3.40;;;;;;;12.17;56.23;154486.38;5084743;28;20579;-83
2023/04/15 10:27:24;;;;;;;4.50;4.10;;;;;;;12.22;59.42;154498.03;5114233;28;20447;-84
2023/04/15 10:29:51;;;;;;;4.07;3.47;;;;;;;12.34;57.73;154527.88;5095572;28;20457;-84
2023/04/15 10:32:19;;;;;;;4.23;3.27;;;;;;;12.42;59.65;154549.88;5111641;28;20538;-84
2023/04/15 10:34:46;;;;;;;4.60;3.27;;;;;;;12.53;59.10;154577.09;5064785;28;20778;-84
2023/04/15 10:37:20;;;;;;;3.40;3.10;;;;;;;12.55;51.88;154582.34;5112603;28;20458;-83
2023/04/15 10:39:47;;;;;;;4.20;3.80;;;;;;;12.66;57.12;154610.81;5085833;28;20444;-83
2023/04/15 10:42:16;;;;;;;6.43;4.00;;;;;;;12.70;52.88;154622.53;5110944;28;20472;-84
2023/04/15 10:44:44;;;;;;;4.40;3.60;;;;;;;12.70;54.27;154622.53;5078900;28;20602;-84
2023/04/15 10:47:13;;;;;;;5.20;3.80;;;;;;;12.79;56.92;154644.53;5108963;28;20458;-84
2023/04/15 10:49:45;;;;;;;3.67;3.30;;;;;;;12.85;60.19;154660.13;5115238;28;20514;-84
2023/04/15 10:52:11;;;;;;;4.57;4.10;;;;;;;12.89;60.21;154670.53;5085315;28;20972;-84
2023/04/15 10:54:39;;;;;;;6.07;4.30;;;;;;;12.95;54.97;154686.06;5082188;28;20540;-83
2023/04/15 10:57:15;;;;;;;6.00;4.57;;;;;;;12.92;60.43;154677.00;5099755;28;20538;-83
2023/04/15 11:00:05;;;;;;;3.20;2.90;;;;;;;13.04;56.87;154708.13;5064685;28;20468;-83
2023/04/15 11:02:42;;;;;;;6.37;3.67;;;;;;;13.05;55.77;154712.00;5068277;28;20531;-83
2023/04/15 11:05:10;;;;;;;4.30;3.50;;;;;;;13.00;54.52;154699.03;5094727;28;20466;-83
2023/04/15 11:07:42;;;;;;;3.27;2.97;;;;;;;12.91;53.79;154675.69;5103705;28;20533;-83
2023/04/15 11:10:55;;;;;;;4.63;3.60;;;;;;;12.80;54.35;154648.47;5066826;28;20469;-83
2023/04/15 11:13:26;;;;;;;3.73;3.27;;;;;;;12.72;55.24;154627.72;5096576;28;20458;-83
2023/04/15 11:15:57;;;;;;;3.10;2.67;;;;;;;12.57;54.36;154587.50;5071664;28;20463;-83
2023/04/15 11:18:25;;;;;;;4.53;3.30;;;;;;;12.57;54.61;154588.81;5070559;28;20464;-83
2023/04/15 11:20:54;;;;;;;4.97;4.07;;;;;;;12.65;57.66;154608.25;5097694;28;20552;-83
2023/04/15 11:23:28;;;;;;;5.17;4.40;;;;;;;12.71;63.60;154623.78;5052668;28;20460;-84
2023/04/15 11:25:55;;;;;;;5.30;4.57;;;;;;;12.79;62.96;154644.53;5048509;28;20477;-83
2023/04/15 11:28:25;;;;;;;6.10;4.57;;;;;;;12.94;57.13;154683.50;5053741;28;20455;-83
2023/04/15 11:30:52;;;;;;;5.13;4.03;;;;;;;13.06;55.17;154714.59;5069638;28;20495;-83
2023/04/15 11:33:19;;;;;;;4.53;3.77;;;;;;;13.03;55.83;154706.81;5084128;28;20446;-83